sensor_id;sensor_type;location;lat;lon;timestamp;P1;durP1;ratioP1;P2;durP2;ratioP2
37527;SDS011;23372;52.050;4.810;2022-10-31T00:02:07;8.20;;;5.53;;
37527;SDS011;23372;52.050;4.810;2022-10-31T00:04:33;7.67;;;4.87;;
37527;SDS011;23372;52.050;4.810;2022-10-31T00:06:58;7.80;;;4.23;;
37527;SDS011;23372;52.050;4.810;2022-10-31T00:09:24;6.63;;;4.80;;
37527;SDS011;23372;52.050;4.810;2022-10-31T00:11:49;11.13;;;4.97;;
37527;SDS011;23372;52.050;4.810;2022-10-31T00:14:15;11.87;;;5.67;;
37527;SDS011;23372;52.050;4.810;2022-10-31T00:16:40;9.60;;;4.93;;
37527;SDS011;23372;52.050;4.810;2022-10-31T00:19:06;11.00;;;4.97;;
37527;SDS011;23372;52.050;4.810;2022-10-31T00:21:32;9.67;;;5.23;;
37527;SDS011;23372;52.050;4.810;2022-10-31T00:23:59;8.37;;;5.03;;
37527;SDS011;23372;52.050;4.810;2022-10-31T00:26:28;10.03;;;4.70;;
37527;SDS011;23372;52.050;4.810;2022-10-31T00:28:55;8.17;;;5.27;;
37527;SDS011;23372;52.050;4.810;2022-10-31T00:31:22;9.57;;;4.60;;
37527;SDS011;23372;52.050;4.810;2022-10-31T00:33:47;8.87;;;4.67;;
37527;SDS011;23372;52.050;4.810;2022-10-31T00:36:14;8.77;;;4.30;;
37527;SDS011;23372;52.050;4.810;2022-10-31T00:38:41;7.87;;;4.73;;
37527;SDS011;23372;52.050;4.810;2022-10-31T00:41:07;8.97;;;4.80;;
37527;SDS011;23372;52.050;4.810;2022-10-31T00:43:34;8.07;;;5.00;;
37527;SDS011;23372;52.050;4.810;2022-10-31T00:45:59;9.87;;;4.83;;
37527;SDS011;23372;52.050;4.810;2022-10-31T00:48:24;8.20;;;4.00;;
37527;SDS011;23372;52.050;4.810;2022-10-31T00:50:50;9.57;;;5.70;;
37527;SDS011;23372;52.050;4.810;2022-10-31T00:53:15;8.37;;;5.10;;
37527;SDS011;23372;52.050;4.810;2022-10-31T00:55:41;10.77;;;5.37;;
37527;SDS011;23372;52.050;4.810;2022-10-31T00:58:06;9.87;;;5.50;;
37527;SDS011;23372;52.050;4.810;2022-10-31T01:00:32;9.70;;;5.00;;
37527;SDS011;23372;52.050;4.810;2022-10-31T01:02:58;12.27;;;6.07;;
37527;SDS011;23372;52.050;4.810;2022-10-31T01:05:23;10.07;;;5.50;;
37527;SDS011;23372;52.050;4.810;2022-10-31T01:07:49;10.30;;;6.03;;
37527;SDS011;23372;52.050;4.810;2022-10-31T01:10:14;13.10;;;6.83;;
37527;SDS011;23372;52.050;4.810;2022-10-31T01:12:44;14.83;;;6.93;;
37527;SDS011;23372;52.050;4.810;2022-10-31T01:15:12;12.47;;;7.43;;
37527;SDS011;23372;52.050;4.810;2022-10-31T01:17:40;12.00;;;7.80;;
37527;SDS011;23372;52.050;4.810;2022-10-31T01:20:06;14.77;;;8.33;;
37527;SDS011;23372;52.050;4.810;2022-10-31T01:22:33;15.47;;;7.73;;
37527;SDS011;23372;52.050;4.810;2022-10-31T01:24:59;10.77;;;7.70;;
37527;SDS011;23372;52.050;4.810;2022-10-31T01:27:25;12.17;;;7.83;;
37527;SDS011;23372;52.050;4.810;2022-10-31T01:29:50;15.43;;;7.33;;
37527;SDS011;23372;52.050;4.810;2022-10-31T01:32:16;10.07;;;6.30;;
37527;SDS011;23372;52.050;4.810;2022-10-31T01:34:41;8.10;;;5.90;;
37527;SDS011;23372;52.050;4.810;2022-10-31T01:37:07;6.30;;;4.60;;
37527;SDS011;23372;52.050;4.810;2022-10-31T01:39:32;17.73;;;5.20;;
37527;SDS011;23372;52.050;4.810;2022-10-31T01:41:58;6.33;;;4.23;;
37527;SDS011;23372;52.050;4.810;2022-10-31T01:47:12;146.80;;;11.00;;
37527;SDS011;23372;52.050;4.810;2022-10-31T01:49:43;7.33;;;3.60;;
37527;SDS011;23372;52.050;4.810;2022-10-31T01:52:15;8.37;;;3.73;;
37527;SDS011;23372;52.050;4.810;2022-10-31T01:54:51;231.63;;;13.93;;
37527;SDS011;23372;52.050;4.810;2022-10-31T01:57:24;323.63;;;17.20;;
37527;SDS011;23372;52.050;4.810;2022-10-31T01:59:51;97.67;;;8.67;;
37527;SDS011;23372;52.050;4.810;2022-10-31T02:02:21;163.73;;;12.33;;
37527;SDS011;23372;52.050;4.810;2022-10-31T02:04:47;7.07;;;4.30;;
37527;SDS011;23372;52.050;4.810;2022-10-31T02:07:14;7.93;;;5.07;;
37527;SDS011;23372;52.050;4.810;2022-10-31T02:09:42;6.70;;;4.57;;
37527;SDS011;23372;52.050;4.810;2022-10-31T02:12:09;5.23;;;3.80;;
37527;SDS011;23372;52.050;4.810;2022-10-31T02:14:36;195.83;;;12.20;;
37527;SDS011;23372;52.050;4.810;2022-10-31T02:17:02;177.87;;;10.73;;
37527;SDS011;23372;52.050;4.810;2022-10-31T02:19:46;251.40;;;12.33;;
37527;SDS011;23372;52.050;4.810;2022-10-31T02:33:53;72.23;;;7.47;;
37527;SDS011;23372;52.050;4.810;2022-10-31T02:36:28;56.33;;;5.20;;
37527;SDS011;23372;52.050;4.810;2022-10-31T02:39:17;92.03;;;5.83;;
37527;SDS011;23372;52.050;4.810;2022-10-31T02:41:49;70.40;;;6.20;;
37527;SDS011;23372;52.050;4.810;2022-10-31T02:44:29;28.33;;;3.83;;
37527;SDS011;23372;52.050;4.810;2022-10-31T02:46:59;49.57;;;4.77;;
37527;SDS011;23372;52.050;4.810;2022-10-31T02:49:39;76.37;;;7.57;;
37527;SDS011;23372;52.050;4.810;2022-10-31T02:52:17;150.97;;;9.60;;
37527;SDS011;23372;52.050;4.810;2022-10-31T02:54:45;99.50;;;7.97;;
37527;SDS011;23372;52.050;4.810;2022-10-31T02:57:12;48.17;;;4.97;;
37527;SDS011;23372;52.050;4.810;2022-10-31T02:59:39;53.63;;;5.67;;
37527;SDS011;23372;52.050;4.810;2022-10-31T03:10:42;72.57;;;4.87;;
37527;SDS011;23372;52.050;4.810;2022-10-31T03:15:44;142.63;;;9.47;;
37527;SDS011;23372;52.050;4.810;2022-10-31T03:18:27;66.57;;;6.90;;
37527;SDS011;23372;52.050;4.810;2022-10-31T03:20:59;65.97;;;6.33;;
37527;SDS011;23372;52.050;4.810;2022-10-31T03:23:30;12.47;;;4.10;;
37527;SDS011;23372;52.050;4.810;2022-10-31T03:26:00;7.13;;;3.87;;
37527;SDS011;23372;52.050;4.810;2022-10-31T03:28:30;6.77;;;4.40;;
37527;SDS011;23372;52.050;4.810;2022-10-31T03:31:01;7.80;;;4.97;;
37527;SDS011;23372;52.050;4.810;2022-10-31T03:33:30;6.57;;;4.90;;
37527;SDS011;23372;52.050;4.810;2022-10-31T03:35:58;9.23;;;6.20;;
37527;SDS011;23372;52.050;4.810;2022-10-31T03:38:28;13.30;;;7.60;;
37527;SDS011;23372;52.050;4.810;2022-10-31T03:40:54;11.53;;;7.77;;
37527;SDS011;23372;52.050;4.810;2022-10-31T03:43:24;33.60;;;9.60;;
37527;SDS011;23372;52.050;4.810;2022-10-31T03:45:55;20.10;;;9.70;;
37527;SDS011;23372;52.050;4.810;2022-10-31T03:48:21;27.70;;;10.43;;
37527;SDS011;23372;52.050;4.810;2022-10-31T03:53:34;23.70;;;12.20;;
37527;SDS011;23372;52.050;4.810;2022-10-31T03:56:07;21.13;;;12.63;;
37527;SDS011;23372;52.050;4.810;2022-10-31T03:58:39;22.20;;;12.43;;
37527;SDS011;23372;52.050;4.810;2022-10-31T04:01:13;19.20;;;12.47;;
37527;SDS011;23372;52.050;4.810;2022-10-31T04:03:42;20.10;;;14.03;;
37527;SDS011;23372;52.050;4.810;2022-10-31T04:06:09;20.70;;;13.43;;
37527;SDS011;23372;52.050;4.810;2022-10-31T04:08:41;21.20;;;13.30;;
37527;SDS011;23372;52.050;4.810;2022-10-31T04:11:10;20.97;;;13.63;;
37527;SDS011;23372;52.050;4.810;2022-10-31T04:13:38;22.73;;;13.43;;
37527;SDS011;23372;52.050;4.810;2022-10-31T04:16:05;21.83;;;12.40;;
37527;SDS011;23372;52.050;4.810;2022-10-31T04:18:31;22.10;;;12.50;;
37527;SDS011;23372;52.050;4.810;2022-10-31T04:21:04;23.43;;;13.20;;
37527;SDS011;23372;52.050;4.810;2022-10-31T04:23:31;21.90;;;12.10;;
37527;SDS011;23372;52.050;4.810;2022-10-31T04:25:58;20.87;;;13.17;;
37527;SDS011;23372;52.050;4.810;2022-10-31T04:28:24;23.20;;;13.57;;
37527;SDS011;23372;52.050;4.810;2022-10-31T04:30:50;22.27;;;14.00;;
37527;SDS011;23372;52.050;4.810;2022-10-31T04:33:16;21.47;;;13.30;;
37527;SDS011;23372;52.050;4.810;2022-10-31T04:35:42;24.47;;;14.03;;
37527;SDS011;23372;52.050;4.810;2022-10-31T04:38:07;23.63;;;14.37;;
37527;SDS011;23372;52.050;4.810;2022-10-31T04:40:33;21.07;;;14.50;;
37527;SDS011;23372;52.050;4.810;2022-10-31T04:42:58;21.33;;;13.80;;
37527;SDS011;23372;52.050;4.810;2022-10-31T04:45:24;21.53;;;13.67;;
37527;SDS011;23372;52.050;4.810;2022-10-31T04:47:49;21.83;;;13.47;;
37527;SDS011;23372;52.050;4.810;2022-10-31T04:50:15;21.07;;;13.47;;
37527;SDS011;23372;52.050;4.810;2022-10-31T04:52:44;22.40;;;13.43;;
37527;SDS011;23372;52.050;4.810;2022-10-31T04:55:11;21.60;;;12.73;;
37527;SDS011;23372;52.050;4.810;2022-10-31T04:57:41;26.00;;;13.80;;
37527;SDS011;23372;52.050;4.810;2022-10-31T05:00:11;28.13;;;12.17;;
37527;SDS011;23372;52.050;4.810;2022-10-31T05:02:48;28.80;;;12.03;;
37527;SDS011;23372;52.050;4.810;2022-10-31T05:05:16;43.30;;;11.13;;
37527;SDS011;23372;52.050;4.810;2022-10-31T05:07:43;38.47;;;11.27;;
37527;SDS011;23372;52.050;4.810;2022-10-31T05:10:10;19.53;;;11.90;;
37527;SDS011;23372;52.050;4.810;2022-10-31T05:12:37;40.60;;;13.00;;
37527;SDS011;23372;52.050;4.810;2022-10-31T05:15:04;26.67;;;13.07;;
37527;SDS011;23372;52.050;4.810;2022-10-31T05:17:30;31.47;;;13.93;;
37527;SDS011;23372;52.050;4.810;2022-10-31T05:19:56;20.43;;;13.30;;
37527;SDS011;23372;52.050;4.810;2022-10-31T05:22:22;21.60;;;13.27;;
37527;SDS011;23372;52.050;4.810;2022-10-31T05:24:47;23.97;;;13.60;;
37527;SDS011;23372;52.050;4.810;2022-10-31T05:27:13;20.87;;;13.13;;
37527;SDS011;23372;52.050;4.810;2022-10-31T05:29:38;23.37;;;12.63;;
37527;SDS011;23372;52.050;4.810;2022-10-31T05:32:03;25.37;;;12.03;;
37527;SDS011;23372;52.050;4.810;2022-10-31T05:34:29;124.63;;;15.57;;
37527;SDS011;23372;52.050;4.810;2022-10-31T05:36:54;25.30;;;12.90;;
37527;SDS011;23372;52.050;4.810;2022-10-31T05:39:20;35.87;;;12.10;;
37527;SDS011;23372;52.050;4.810;2022-10-31T05:41:45;41.23;;;12.00;;
37527;SDS011;23372;52.050;4.810;2022-10-31T05:44:11;35.20;;;11.43;;
37527;SDS011;23372;52.050;4.810;2022-10-31T05:46:36;55.43;;;11.60;;
37527;SDS011;23372;52.050;4.810;2022-10-31T05:49:02;19.03;;;11.47;;
37527;SDS011;23372;52.050;4.810;2022-10-31T05:51:27;21.30;;;11.40;;
37527;SDS011;23372;52.050;4.810;2022-10-31T05:53:53;147.67;;;15.27;;
37527;SDS011;23372;52.050;4.810;2022-10-31T05:56:18;41.47;;;13.23;;
37527;SDS011;23372;52.050;4.810;2022-10-31T05:58:44;88.53;;;12.30;;
37527;SDS011;23372;52.050;4.810;2022-10-31T06:01:09;58.67;;;11.93;;
37527;SDS011;23372;52.050;4.810;2022-10-31T06:03:35;49.07;;;12.50;;
37527;SDS011;23372;52.050;4.810;2022-10-31T06:06:00;34.43;;;11.23;;
37527;SDS011;23372;52.050;4.810;2022-10-31T06:08:26;32.43;;;12.17;;
37527;SDS011;23372;52.050;4.810;2022-10-31T06:10:52;75.60;;;13.90;;
37527;SDS011;23372;52.050;4.810;2022-10-31T06:13:18;37.87;;;12.23;;
37527;SDS011;23372;52.050;4.810;2022-10-31T06:15:44;78.93;;;12.60;;
37527;SDS011;23372;52.050;4.810;2022-10-31T06:18:09;32.23;;;11.93;;
37527;SDS011;23372;52.050;4.810;2022-10-31T06:20:35;25.70;;;11.57;;
37527;SDS011;23372;52.050;4.810;2022-10-31T06:23:00;106.23;;;14.30;;
37527;SDS011;23372;52.050;4.810;2022-10-31T06:25:26;34.17;;;10.20;;
37527;SDS011;23372;52.050;4.810;2022-10-31T06:27:52;30.73;;;10.37;;
37527;SDS011;23372;52.050;4.810;2022-10-31T06:30:17;25.57;;;10.03;;
37527;SDS011;23372;52.050;4.810;2022-10-31T06:32:43;37.40;;;9.63;;
37527;SDS011;23372;52.050;4.810;2022-10-31T06:35:09;33.77;;;9.73;;
37527;SDS011;23372;52.050;4.810;2022-10-31T06:37:35;47.83;;;10.00;;
37527;SDS011;23372;52.050;4.810;2022-10-31T06:40:00;41.10;;;8.40;;
37527;SDS011;23372;52.050;4.810;2022-10-31T06:42:26;25.73;;;8.43;;
37527;SDS011;23372;52.050;4.810;2022-10-31T06:44:51;42.47;;;10.17;;
37527;SDS011;23372;52.050;4.810;2022-10-31T06:47:17;28.03;;;9.33;;
37527;SDS011;23372;52.050;4.810;2022-10-31T06:49:42;41.13;;;9.83;;
37527;SDS011;23372;52.050;4.810;2022-10-31T06:52:08;26.67;;;9.80;;
37527;SDS011;23372;52.050;4.810;2022-10-31T06:54:33;20.57;;;8.47;;
37527;SDS011;23372;52.050;4.810;2022-10-31T06:56:59;14.20;;;8.47;;
37527;SDS011;23372;52.050;4.810;2022-10-31T06:59:24;18.27;;;7.23;;
37527;SDS011;23372;52.050;4.810;2022-10-31T07:01:50;26.00;;;7.77;;
37527;SDS011;23372;52.050;4.810;2022-10-31T07:04:15;14.60;;;7.30;;
37527;SDS011;23372;52.050;4.810;2022-10-31T07:06:41;15.03;;;6.83;;
37527;SDS011;23372;52.050;4.810;2022-10-31T07:09:06;17.27;;;7.00;;
37527;SDS011;23372;52.050;4.810;2022-10-31T07:11:32;19.70;;;7.13;;
37527;SDS011;23372;52.050;4.810;2022-10-31T07:13:57;38.53;;;8.20;;
37527;SDS011;23372;52.050;4.810;2022-10-31T07:16:23;35.20;;;9.43;;
37527;SDS011;23372;52.050;4.810;2022-10-31T07:18:48;18.13;;;7.80;;
37527;SDS011;23372;52.050;4.810;2022-10-31T07:21:15;17.73;;;8.83;;
37527;SDS011;23372;52.050;4.810;2022-10-31T07:23:40;18.93;;;9.73;;
37527;SDS011;23372;52.050;4.810;2022-10-31T07:26:06;17.70;;;10.23;;
37527;SDS011;23372;52.050;4.810;2022-10-31T07:28:32;20.30;;;11.47;;
37527;SDS011;23372;52.050;4.810;2022-10-31T07:30:58;24.03;;;12.17;;
37527;SDS011;23372;52.050;4.810;2022-10-31T07:33:23;19.23;;;11.77;;
37527;SDS011;23372;52.050;4.810;2022-10-31T07:35:52;26.30;;;12.13;;
37527;SDS011;23372;52.050;4.810;2022-10-31T07:38:18;24.73;;;12.07;;
37527;SDS011;23372;52.050;4.810;2022-10-31T07:40:44;27.27;;;12.40;;
37527;SDS011;23372;52.050;4.810;2022-10-31T07:43:14;23.33;;;13.00;;
37527;SDS011;23372;52.050;4.810;2022-10-31T07:45:39;22.50;;;12.07;;
37527;SDS011;23372;52.050;4.810;2022-10-31T07:48:05;19.53;;;12.83;;
37527;SDS011;23372;52.050;4.810;2022-10-31T07:50:31;28.20;;;12.73;;
37527;SDS011;23372;52.050;4.810;2022-10-31T07:53:01;27.03;;;13.67;;
37527;SDS011;23372;52.050;4.810;2022-10-31T07:55:31;35.10;;;13.40;;
37527;SDS011;23372;52.050;4.810;2022-10-31T07:57:58;43.27;;;14.10;;
37527;SDS011;23372;52.050;4.810;2022-10-31T08:00:24;34.77;;;14.03;;
37527;SDS011;23372;52.050;4.810;2022-10-31T08:02:57;39.70;;;13.23;;
37527;SDS011;23372;52.050;4.810;2022-10-31T08:05:28;36.43;;;12.97;;
37527;SDS011;23372;52.050;4.810;2022-10-31T08:07:54;44.47;;;14.20;;
37527;SDS011;23372;52.050;4.810;2022-10-31T08:10:20;27.93;;;14.03;;
37527;SDS011;23372;52.050;4.810;2022-10-31T08:12:46;34.43;;;13.97;;
37527;SDS011;23372;52.050;4.810;2022-10-31T08:15:12;35.17;;;13.37;;
37527;SDS011;23372;52.050;4.810;2022-10-31T08:17:38;28.63;;;14.30;;
37527;SDS011;23372;52.050;4.810;2022-10-31T08:20:04;28.33;;;13.53;;
37527;SDS011;23372;52.050;4.810;2022-10-31T08:22:30;29.80;;;14.43;;
37527;SDS011;23372;52.050;4.810;2022-10-31T08:24:56;31.37;;;15.00;;
37527;SDS011;23372;52.050;4.810;2022-10-31T08:27:21;24.97;;;14.83;;
37527;SDS011;23372;52.050;4.810;2022-10-31T08:29:47;28.97;;;17.50;;
37527;SDS011;23372;52.050;4.810;2022-10-31T08:32:12;30.70;;;17.87;;
37527;SDS011;23372;52.050;4.810;2022-10-31T08:34:38;33.47;;;18.30;;
37527;SDS011;23372;52.050;4.810;2022-10-31T08:37:04;31.53;;;19.07;;
37527;SDS011;23372;52.050;4.810;2022-10-31T08:39:29;31.67;;;18.33;;
37527;SDS011;23372;52.050;4.810;2022-10-31T08:41:55;40.07;;;19.47;;
37527;SDS011;23372;52.050;4.810;2022-10-31T08:44:20;28.53;;;19.30;;
37527;SDS011;23372;52.050;4.810;2022-10-31T08:46:46;33.47;;;19.77;;
37527;SDS011;23372;52.050;4.810;2022-10-31T08:49:11;40.63;;;21.93;;
37527;SDS011;23372;52.050;4.810;2022-10-31T08:51:37;34.43;;;20.93;;
37527;SDS011;23372;52.050;4.810;2022-10-31T08:54:02;38.07;;;22.60;;
37527;SDS011;23372;52.050;4.810;2022-10-31T08:56:28;34.77;;;22.43;;
37527;SDS011;23372;52.050;4.810;2022-10-31T08:58:53;38.97;;;21.27;;
37527;SDS011;23372;52.050;4.810;2022-10-31T09:01:19;32.87;;;21.23;;
37527;SDS011;23372;52.050;4.810;2022-10-31T09:03:44;37.87;;;23.57;;
37527;SDS011;23372;52.050;4.810;2022-10-31T09:06:10;41.70;;;23.80;;
37527;SDS011;23372;52.050;4.810;2022-10-31T09:08:35;38.90;;;23.90;;
37527;SDS011;23372;52.050;4.810;2022-10-31T09:11:01;37.97;;;21.60;;
37527;SDS011;23372;52.050;4.810;2022-10-31T09:13:27;36.20;;;22.02;;
37527;SDS011;23372;52.050;4.810;2022-10-31T09:15:53;33.43;;;21.97;;
37527;SDS011;23372;52.050;4.810;2022-10-31T09:18:19;33.97;;;21.63;;
37527;SDS011;23372;52.050;4.810;2022-10-31T09:20:46;39.30;;;24.80;;
37527;SDS011;23372;52.050;4.810;2022-10-31T09:23:17;38.20;;;23.07;;
37527;SDS011;23372;52.050;4.810;2022-10-31T09:25:45;42.97;;;23.58;;
37527;SDS011;23372;52.050;4.810;2022-10-31T09:28:13;39.55;;;22.75;;
37527;SDS011;23372;52.050;4.810;2022-10-31T09:30:39;38.30;;;23.10;;
37527;SDS011;23372;52.050;4.810;2022-10-31T09:33:11;36.73;;;22.87;;
37527;SDS011;23372;52.050;4.810;2022-10-31T09:35:38;38.63;;;22.73;;
37527;SDS011;23372;52.050;4.810;2022-10-31T09:38:05;35.17;;;22.92;;
37527;SDS011;23372;52.050;4.810;2022-10-31T09:46:13;39.38;;;24.17;;
37527;SDS011;23372;52.050;4.810;2022-10-31T09:51:39;42.72;;;27.48;;
37527;SDS011;23372;52.050;4.810;2022-10-31T09:54:15;45.83;;;27.33;;
37527;SDS011;23372;52.050;4.810;2022-10-31T09:56:55;49.40;;;26.55;;
37527;SDS011;23372;52.050;4.810;2022-10-31T09:59:28;48.90;;;28.15;;
37527;SDS011;23372;52.050;4.810;2022-10-31T10:01:59;46.35;;;26.33;;
37527;SDS011;23372;52.050;4.810;2022-10-31T10:07:07;48.67;;;26.33;;
37527;SDS011;23372;52.050;4.810;2022-10-31T10:09:55;46.35;;;26.98;;
37527;SDS011;23372;52.050;4.810;2022-10-31T10:12:36;41.70;;;23.35;;
37527;SDS011;23372;52.050;4.810;2022-10-31T10:15:30;44.50;;;25.65;;
37527;SDS011;23372;52.050;4.810;2022-10-31T10:18:19;42.83;;;24.70;;
37527;SDS011;23372;52.050;4.810;2022-10-31T10:26:59;42.75;;;24.25;;
37527;SDS011;23372;52.050;4.810;2022-10-31T10:32:28;45.90;;;25.50;;
37527;SDS011;23372;52.050;4.810;2022-10-31T10:34:57;47.88;;;25.25;;
37527;SDS011;23372;52.050;4.810;2022-10-31T10:37:51;44.30;;;25.17;;
37527;SDS011;23372;52.050;4.810;2022-10-31T10:40:24;49.67;;;25.20;;
37527;SDS011;23372;52.050;4.810;2022-10-31T10:46:03;42.88;;;25.10;;
37527;SDS011;23372;52.050;4.810;2022-10-31T10:49:12;47.70;;;26.45;;
37527;SDS011;23372;52.050;4.810;2022-10-31T10:51:59;45.05;;;26.02;;
37527;SDS011;23372;52.050;4.810;2022-10-31T10:54:33;41.35;;;25.77;;
37527;SDS011;23372;52.050;4.810;2022-10-31T11:00:17;41.33;;;26.13;;
37527;SDS011;23372;52.050;4.810;2022-10-31T11:02:46;44.17;;;24.90;;
37527;SDS011;23372;52.050;4.810;2022-10-31T11:05:46;39.97;;;24.10;;
37527;SDS011;23372;52.050;4.810;2022-10-31T11:08:07;38.67;;;23.55;;
37527;SDS011;23372;52.050;4.810;2022-10-31T11:10:33;42.88;;;24.40;;
37527;SDS011;23372;52.050;4.810;2022-10-31T11:13:01;42.45;;;25.33;;
37527;SDS011;23372;52.050;4.810;2022-10-31T11:15:31;42.20;;;24.33;;
37527;SDS011;23372;52.050;4.810;2022-10-31T11:18:01;45.83;;;25.60;;
37527;SDS011;23372;52.050;4.810;2022-10-31T11:20:29;38.13;;;24.65;;
37527;SDS011;23372;52.050;4.810;2022-10-31T11:23:01;40.85;;;24.95;;
37527;SDS011;23372;52.050;4.810;2022-10-31T11:25:28;38.13;;;24.42;;
37527;SDS011;23372;52.050;4.810;2022-10-31T11:28:09;35.47;;;23.58;;
37527;SDS011;23372;52.050;4.810;2022-10-31T11:30:37;33.53;;;22.73;;
37527;SDS011;23372;52.050;4.810;2022-10-31T11:33:26;37.22;;;24.02;;
37527;SDS011;23372;52.050;4.810;2022-10-31T11:35:57;34.67;;;22.10;;
37527;SDS011;23372;52.050;4.810;2022-10-31T11:38:29;33.92;;;21.88;;
37527;SDS011;23372;52.050;4.810;2022-10-31T11:41:03;37.05;;;22.33;;
37527;SDS011;23372;52.050;4.810;2022-10-31T11:43:49;34.30;;;22.20;;
37527;SDS011;23372;52.050;4.810;2022-10-31T11:46:34;33.78;;;21.42;;
37527;SDS011;23372;52.050;4.810;2022-10-31T11:49:00;34.92;;;21.33;;
37527;SDS011;23372;52.050;4.810;2022-10-31T11:51:30;32.95;;;21.77;;
37527;SDS011;23372;52.050;4.810;2022-10-31T11:53:58;37.92;;;23.08;;
37527;SDS011;23372;52.050;4.810;2022-10-31T11:56:27;36.55;;;21.83;;
37527;SDS011;23372;52.050;4.810;2022-10-31T11:59:03;40.80;;;24.33;;
37527;SDS011;23372;52.050;4.810;2022-10-31T12:01:31;36.85;;;22.70;;
37527;SDS011;23372;52.050;4.810;2022-10-31T12:04:06;38.80;;;24.45;;
37527;SDS011;23372;52.050;4.810;2022-10-31T12:06:37;40.35;;;23.20;;
37527;SDS011;23372;52.050;4.810;2022-10-31T12:14:26;44.78;;;25.20;;
37527;SDS011;23372;52.050;4.810;2022-10-31T12:17:14;41.13;;;25.52;;
37527;SDS011;23372;52.050;4.810;2022-10-31T12:30:19;51.88;;;27.98;;
37527;SDS011;23372;52.050;4.810;2022-10-31T12:41:45;45.85;;;25.13;;
37527;SDS011;23372;52.050;4.810;2022-10-31T12:44:34;43.55;;;24.83;;
37527;SDS011;23372;52.050;4.810;2022-10-31T12:47:26;42.70;;;24.52;;
37527;SDS011;23372;52.050;4.810;2022-10-31T12:55:48;52.75;;;27.55;;
37527;SDS011;23372;52.050;4.810;2022-10-31T12:58:20;51.75;;;28.58;;
37527;SDS011;23372;52.050;4.810;2022-10-31T13:00:51;57.75;;;30.33;;
37527;SDS011;23372;52.050;4.810;2022-10-31T13:03:38;53.13;;;29.63;;
37527;SDS011;23372;52.050;4.810;2022-10-31T13:06:20;57.17;;;30.67;;
37527;SDS011;23372;52.050;4.810;2022-10-31T13:08:56;59.13;;;30.80;;
37527;SDS011;23372;52.050;4.810;2022-10-31T13:11:27;61.63;;;31.83;;
37527;SDS011;23372;52.050;4.810;2022-10-31T13:14:06;55.22;;;31.80;;
37527;SDS011;23372;52.050;4.810;2022-10-31T13:16:46;60.50;;;32.33;;
37527;SDS011;23372;52.050;4.810;2022-10-31T13:19:17;56.60;;;32.05;;
37527;SDS011;23372;52.050;4.810;2022-10-31T13:24:59;59.08;;;30.00;;
37527;SDS011;23372;52.050;4.810;2022-10-31T13:27:41;53.95;;;30.63;;
37527;SDS011;23372;52.050;4.810;2022-10-31T13:32:37;73.72;;;32.05;;
37527;SDS011;23372;52.050;4.810;2022-10-31T13:35:33;65.47;;;32.10;;
37527;SDS011;23372;52.050;4.810;2022-10-31T13:46:40;65.10;;;34.08;;
37527;SDS011;23372;52.050;4.810;2022-10-31T13:49:21;60.55;;;31.42;;
37527;SDS011;23372;52.050;4.810;2022-10-31T13:54:36;60.50;;;32.67;;
37527;SDS011;23372;52.050;4.810;2022-10-31T13:57:18;59.72;;;33.05;;
37527;SDS011;23372;52.050;4.810;2022-10-31T13:59:56;57.97;;;32.40;;
37527;SDS011;23372;52.050;4.810;2022-10-31T14:02:27;64.70;;;33.47;;
37527;SDS011;23372;52.050;4.810;2022-10-31T14:05:02;67.53;;;33.60;;
37527;SDS011;23372;52.050;4.810;2022-10-31T14:07:31;59.45;;;30.92;;
37527;SDS011;23372;52.050;4.810;2022-10-31T14:17:50;61.67;;;30.88;;
37527;SDS011;23372;52.050;4.810;2022-10-31T14:20:34;54.97;;;30.80;;
37527;SDS011;23372;52.050;4.810;2022-10-31T14:23:51;55.13;;;29.13;;
37527;SDS011;23372;52.050;4.810;2022-10-31T14:28:43;57.92;;;30.65;;
37527;SDS011;23372;52.050;4.810;2022-10-31T14:31:31;55.25;;;29.92;;
37527;SDS011;23372;52.050;4.810;2022-10-31T14:33:57;58.72;;;30.25;;
37527;SDS011;23372;52.050;4.810;2022-10-31T14:36:58;53.08;;;29.45;;
37527;SDS011;23372;52.050;4.810;2022-10-31T14:42:18;62.97;;;29.35;;
37527;SDS011;23372;52.050;4.810;2022-10-31T14:45:15;58.85;;;29.83;;
37527;SDS011;23372;52.050;4.810;2022-10-31T14:50:59;51.35;;;29.38;;
37527;SDS011;23372;52.050;4.810;2022-10-31T14:53:41;57.67;;;29.30;;
37527;SDS011;23372;52.050;4.810;2022-10-31T14:56:14;56.15;;;29.23;;
37527;SDS011;23372;52.050;4.810;2022-10-31T14:58:54;64.55;;;30.60;;
37527;SDS011;23372;52.050;4.810;2022-10-31T15:01:29;64.88;;;29.85;;
37527;SDS011;23372;52.050;4.810;2022-10-31T15:04:02;54.50;;;30.55;;
37527;SDS011;23372;52.050;4.810;2022-10-31T15:06:44;57.00;;;30.08;;
37527;SDS011;23372;52.050;4.810;2022-10-31T15:09:25;58.28;;;29.42;;
37527;SDS011;23372;52.050;4.810;2022-10-31T15:11:52;58.63;;;29.60;;
37527;SDS011;23372;52.050;4.810;2022-10-31T15:14:25;64.45;;;30.08;;
37527;SDS011;23372;52.050;4.810;2022-10-31T15:16:53;59.25;;;30.70;;
37527;SDS011;23372;52.050;4.810;2022-10-31T15:19:25;59.67;;;30.35;;
37527;SDS011;23372;52.050;4.810;2022-10-31T15:21:53;69.18;;;30.27;;
37527;SDS011;23372;52.050;4.810;2022-10-31T15:24:20;60.30;;;31.52;;
37527;SDS011;23372;52.050;4.810;2022-10-31T15:26:52;60.05;;;29.77;;
37527;SDS011;23372;52.050;4.810;2022-10-31T15:29:20;57.28;;;29.85;;
37527;SDS011;23372;52.050;4.810;2022-10-31T15:31:59;57.67;;;30.27;;
37527;SDS011;23372;52.050;4.810;2022-10-31T15:34:39;58.03;;;30.00;;
37527;SDS011;23372;52.050;4.810;2022-10-31T15:37:11;59.97;;;29.85;;
37527;SDS011;23372;52.050;4.810;2022-10-31T15:39:38;59.58;;;28.52;;
37527;SDS011;23372;52.050;4.810;2022-10-31T15:42:04;59.40;;;30.48;;
37527;SDS011;23372;52.050;4.810;2022-10-31T15:44:40;65.57;;;29.33;;
37527;SDS011;23372;52.050;4.810;2022-10-31T15:47:13;57.05;;;29.42;;
37527;SDS011;23372;52.050;4.810;2022-10-31T15:49:42;59.30;;;30.52;;
37527;SDS011;23372;52.050;4.810;2022-10-31T15:55:04;60.03;;;30.02;;
37527;SDS011;23372;52.050;4.810;2022-10-31T15:57:51;62.05;;;30.33;;
37527;SDS011;23372;52.050;4.810;2022-10-31T16:00:23;68.68;;;30.65;;
37527;SDS011;23372;52.050;4.810;2022-10-31T16:03:06;56.22;;;28.75;;
37527;SDS011;23372;52.050;4.810;2022-10-31T16:05:46;59.72;;;29.73;;
37527;SDS011;23372;52.050;4.810;2022-10-31T16:08:24;58.22;;;29.15;;
37527;SDS011;23372;52.050;4.810;2022-10-31T16:10:53;64.10;;;30.52;;
37527;SDS011;23372;52.050;4.810;2022-10-31T16:13:20;60.70;;;30.15;;
37527;SDS011;23372;52.050;4.810;2022-10-31T16:15:59;61.92;;;31.08;;
37527;SDS011;23372;52.050;4.810;2022-10-31T16:18:26;52.00;;;28.70;;
37527;SDS011;23372;52.050;4.810;2022-10-31T16:20:54;61.92;;;30.27;;
37527;SDS011;23372;52.050;4.810;2022-10-31T16:23:21;57.90;;;29.63;;
37527;SDS011;23372;52.050;4.810;2022-10-31T16:25:49;60.65;;;30.08;;
37527;SDS011;23372;52.050;4.810;2022-10-31T16:28:16;57.33;;;27.33;;
37527;SDS011;23372;52.050;4.810;2022-10-31T16:30:47;57.85;;;28.80;;
37527;SDS011;23372;52.050;4.810;2022-10-31T16:35:50;59.88;;;28.75;;
37527;SDS011;23372;52.050;4.810;2022-10-31T16:38:16;57.05;;;28.35;;
37527;SDS011;23372;52.050;4.810;2022-10-31T16:40:41;48.90;;;27.42;;
37527;SDS011;23372;52.050;4.810;2022-10-31T16:43:09;63.20;;;28.92;;
37527;SDS011;23372;52.050;4.810;2022-10-31T16:45:41;57.88;;;29.80;;
37527;SDS011;23372;52.050;4.810;2022-10-31T16:48:12;58.20;;;29.92;;